Time;durP1;ratioP1;P1;durP2;ratioP2;P2;SDS_P1;SDS_P2;PMS_P1;PMS_P2;Temp;Humidity;BMP_temperature;BMP_pressure;BME280_temperature;BME280_humidity;BME280_pressure;Samples;Min_cycle;Max_cycle;Signal;HPM_P1;HPM_P2
2022/07/02 00:01:32;;;;;;;13.05;6.25;;;;;;;20.02;96.69;93339.84;5010117;28;20532;-76
2022/07/02 00:04:05;;;;;;;9.07;6.18;;;;;;;19.98;97.53;93323.19;5009807;28;20042;-76
2022/07/02 00:06:33;;;;;;;25.17;7.68;;;;;;;19.94;96.70;93321.34;5009931;28;20072;-78
2022/07/02 00:09:01;;;;;;;11.75;5.97;;;;;;;19.95;97.04;93320.28;5010473;28;20560;-78
2022/07/02 00:11:27;;;;;;;7.85;6.00;;;;;;;19.95;96.28;93320.28;5010250;28;20046;-78
2022/07/02 00:13:55;;;;;;;9.57;6.43;;;;;;;19.89;95.72;93322.91;5010047;28;20473;-78
2022/07/02 00:16:21;;;;;;;9.50;6.38;;;;;;;19.82;96.20;93317.22;5010012;28;20137;-77
2022/07/02 00:18:49;;;;;;;10.50;6.25;;;;;;;19.71;96.38;93320.84;5009753;28;20060;-78
2022/07/02 00:21:19;;;;;;;8.95;5.82;;;;;;;19.72;96.70;93331.03;5010005;28;20084;-77
2022/07/02 00:23:45;;;;;;;9.27;6.38;;;;;;;19.71;97.69;93342.50;5009702;28;20042;-77
2022/07/02 00:26:17;;;;;;;7.70;5.95;;;;;;;19.63;97.94;93341.19;5009373;28;20103;-78
2022/07/02 00:28:51;;;;;;;7.75;6.03;;;;;;;19.60;97.99;93330.53;5008940;28;20042;-79
2022/07/02 00:31:18;;;;;;;8.75;6.38;;;;;;;19.49;99.03;93316.75;5009962;28;20046;-77
2022/07/02 00:33:46;;;;;;;6.82;6.05;;;;;;;19.50;99.44;93333.94;5009558;28;20834;-77
2022/07/02 00:36:21;;;;;;;8.98;6.75;;;;;;;19.36;99.01;93323.25;5009053;28;20461;-76
2022/07/02 00:38:50;;;;;;;9.52;5.95;;;;;;;19.41;99.81;93335.50;5009032;28;20521;-77
2022/07/02 00:41:18;;;;;;;8.48;5.90;;;;;;;19.32;99.53;93330.03;5009128;28;20046;-77
2022/07/02 00:43:46;;;;;;;11.68;6.32;;;;;;;19.36;100.00;93336.28;5008909;28;20131;-77
2022/07/02 00:46:14;;;;;;;7.82;6.13;;;;;;;19.42;99.81;93347.47;5008806;28;20137;-77
2022/07/02 00:48:43;;;;;;;7.95;5.82;;;;;;;19.40;99.42;93349.56;5008880;28;20516;-77
2022/07/02 00:51:10;;;;;;;8.38;6.07;;;;;;;19.33;99.63;93348.00;5006533;28;20041;-77
2022/07/02 00:53:37;;;;;;;7.43;6.32;;;;;;;19.23;99.73;93351.41;5008990;28;20050;-77
2022/07/02 00:56:05;;;;;;;7.55;6.25;;;;;;;19.16;100.00;93350.09;5008744;28;20050;-77
2022/07/02 00:58:33;;;;;;;7.85;6.57;;;;;;;19.09;100.00;93345.91;5008852;28;20557;-77
2022/07/02 01:01:00;;;;;;;8.70;6.25;;;;;;;18.98;100.00;93336.47;5009006;28;20045;-77
2022/07/02 01:03:28;;;;;;;7.95;6.82;;;;;;;18.90;100.00;93324.00;5008603;28;20049;-77
2022/07/02 01:05:57;;;;;;;10.05;7.30;;;;;;;18.95;100.00;93337.00;5008649;28;20050;-77
2022/07/02 01:11:12;;;;;;;9.93;6.22;;;;;;;18.94;100.00;93335.47;5009140;28;20409;-77
2022/07/02 01:13:40;;;;;;;9.05;6.50;;;;;;;18.95;100.00;93330.00;5009154;28;20042;-77
2022/07/02 01:16:07;;;;;;;8.82;6.57;;;;;;;18.99;100.00;93329.47;5008528;28;20038;-77
2022/07/02 01:18:35;;;;;;;9.90;6.72;;;;;;;19.02;100.00;93327.13;5010649;28;20084;-77
2022/07/02 01:21:01;;;;;;;8.52;6.70;;;;;;;19.00;100.00;93333.63;5012794;28;20132;-77
2022/07/02 01:23:30;;;;;;;7.28;6.50;;;;;;;19.01;100.00;93333.38;5012752;28;20054;-77
2022/07/02 01:25:57;;;;;;;9.13;6.60;;;;;;;18.94;100.00;93325.03;5012853;28;20057;-77
2022/07/02 01:28:23;;;;;;;9.02;6.53;;;;;;;18.94;100.00;93325.03;5013000;28;20047;-77
2022/07/02 01:30:52;;;;;;;8.55;6.60;;;;;;;18.93;100.00;93331.28;5010220;28;20053;-77
2022/07/02 01:33:19;;;;;;;13.68;6.43;;;;;;;18.91;100.00;93328.16;5012720;28;20042;-77
2022/07/02 01:35:46;;;;;;;8.52;6.38;;;;;;;18.90;100.00;93322.19;5012582;28;20104;-77
2022/07/02 01:38:12;;;;;;;9.30;6.75;;;;;;;18.83;100.00;93319.03;5012670;28;20054;-77
2022/07/02 01:40:41;;;;;;;8.55;7.20;;;;;;;18.83;100.00;93326.84;5012465;28;20046;-77
2022/07/02 01:43:08;;;;;;;8.57;7.07;;;;;;;18.75;100.00;93322.16;5012471;28;20096;-76
2022/07/02 01:45:34;;;;;;;9.25;6.85;;;;;;;18.68;100.00;93325.78;5012430;28;20092;-77
2022/07/02 01:48:01;;;;;;;8.63;6.93;;;;;;;18.63;100.00;93325.78;5012529;28;20095;-77
2022/07/02 01:50:28;;;;;;;10.18;7.53;;;;;;;18.59;100.00;93324.72;5012070;28;20100;-77
2022/07/02 01:52:56;;;;;;;9.63;7.78;;;;;;;18.59;100.00;93327.31;5012248;28;20045;-76
2022/07/02 01:55:24;;;;;;;12.50;7.47;;;;;;;18.58;100.00;93333.56;5012142;28;20049;-76
2022/07/02 01:57:52;;;;;;;10.40;7.57;;;;;;;18.49;100.00;93309.09;5009338;28;20128;-76
2022/07/02 02:00:20;;;;;;;9.27;7.30;;;;;;;18.62;100.00;93324.22;5012315;28;20053;-77
2022/07/02 02:02:47;;;;;;;8.30;6.97;;;;;;;18.64;100.00;93329.94;5011805;28;20050;-77
2022/07/02 02:05:14;;;;;;;10.02;6.88;;;;;;;18.62;100.00;93339.03;5011677;28;20137;-77
2022/07/02 02:07:41;;;;;;;10.35;7.57;;;;;;;18.55;100.00;93319.25;5011872;28;20517;-77
2022/07/02 02:10:09;;;;;;;10.60;6.90;;;;;;;18.65;100.00;93334.09;5011742;28;20084;-77
2022/07/02 02:12:35;;;;;;;10.73;7.07;;;;;;;18.62;100.00;93332.03;5011834;28;20046;-77
2022/07/02 02:15:04;;;;;;;10.13;7.25;;;;;;;18.56;100.00;93331.22;5011842;28;20777;-77
2022/07/02 02:17:31;;;;;;;12.50;7.28;;;;;;;18.59;100.00;93324.72;5011975;28;20042;-77
2022/07/02 02:19:58;;;;;;;9.30;7.30;;;;;;;18.58;100.00;93322.38;5011899;28;20445;-77
2022/07/02 02:22:25;;;;;;;13.02;7.65;;;;;;;18.49;100.00;93314.28;5011630;28;20050;-76
2022/07/02 02:24:51;;;;;;;13.95;7.82;;;;;;;18.47;100.00;93330.13;5008982;28;20054;-76
2022/07/02 02:27:18;;;;;;;9.00;6.88;;;;;;;18.27;100.00;93290.03;5011531;28;20046;-77
2022/07/02 02:29:45;;;;;;;16.75;7.85;;;;;;;18.48;100.00;93320.53;5011537;28;20045;-78
2022/07/02 02:32:14;;;;;;;10.60;7.22;;;;;;;18.47;100.00;93332.75;5009168;28;20046;-77
2022/07/02 02:34:40;;;;;;;12.02;7.22;;;;;;;18.40;100.00;93333.00;5011775;28;20046;-77
2022/07/02 02:37:07;;;;;;;11.68;7.40;;;;;;;18.30;100.00;93331.13;5011589;28;20104;-77
2022/07/02 02:39:34;;;;;;;11.18;7.45;;;;;;;18.24;100.00;93328.78;5011318;28;20046;-77
2022/07/02 02:42:01;;;;;;;14.02;7.70;;;;;;;18.12;100.00;93323.78;5011536;28;20472;-77
2022/07/02 02:44:28;;;;;;;14.05;7.63;;;;;;;18.11;100.00;93338.63;5011178;28;20521;-77
2022/07/02 02:46:55;;;;;;;11.30;7.78;;;;;;;18.09;100.00;93332.88;5011101;28;20045;-77
2022/07/02 02:49:23;;;;;;;13.55;9.05;;;;;;;18.09;100.00;93345.88;5011181;28;20042;-77
2022/07/02 02:51:50;;;;;;;12.45;8.15;;;;;;;18.06;100.00;93345.56;5010964;28;20567;-77
2022/07/02 02:54:16;;;;;;;13.90;7.75;;;;;;;18.01;100.00;93343.72;5010975;28;20046;-77
2022/07/02 02:56:43;;;;;;;12.15;7.80;;;;;;;18.03;100.00;93349.44;5011092;28;20038;-76
2022/07/02 02:59:10;;;;;;;12.18;8.20;;;;;;;18.01;100.00;93354.13;5011106;28;20045;-77
2022/07/02 03:01:36;;;;;;;10.45;7.70;;;;;;;17.96;100.00;93354.88;5010641;28;20042;-77
2022/07/02 03:04:03;;;;;;;10.65;7.50;;;;;;;17.85;100.00;93348.03;5011113;28;20108;-77
2022/07/02 03:06:31;;;;;;;10.68;7.90;;;;;;;17.91;100.00;93360.03;5011383;28;20409;-77
2022/07/02 03:08:58;;;;;;;17.45;8.57;;;;;;;17.95;100.00;93370.72;5011485;28;20112;-76
2022/07/02 03:11:25;;;;;;;14.85;8.32;;;;;;;17.97;100.00;93368.66;5011069;28;20054;-77
2022/07/02 03:13:52;;;;;;;13.18;8.52;;;;;;;18.01;100.00;93362.69;5008093;28;20077;-77
2022/07/02 03:16:18;;;;;;;14.57;8.60;;;;;;;17.98;100.00;93354.63;5010652;28;20052;-77
2022/07/02 03:18:46;;;;;;;12.18;8.55;;;;;;;18.00;100.00;93358.53;5010627;28;20509;-77
2022/07/02 03:21:13;;;;;;;16.92;9.18;;;;;;;17.93;100.00;93349.38;5010971;28;20496;-77
2022/07/02 03:23:41;;;;;;;13.75;9.30;;;;;;;18.01;100.00;93370.47;5010746;28;20049;-77
2022/07/02 03:26:08;;;;;;;14.80;8.90;;;;;;;17.99;100.00;93359.56;5010460;28;20074;-77
2022/07/02 03:28:34;;;;;;;12.43;7.90;;;;;;;18.04;100.00;93369.19;5010709;28;20103;-77
2022/07/02 03:31:01;;;;;;;10.98;8.18;;;;;;;18.12;100.00;93365.38;5010709;28;20046;-77
2022/07/02 03:33:28;;;;;;;9.13;7.50;;;;;;;18.16;100.00;93364.59;5010408;28;20489;-77
2022/07/02 03:35:55;;;;;;;12.38;8.18;;;;;;;18.21;100.00;93369.06;5010483;28;20108;-77
2022/07/02 03:38:22;;;;;;;12.52;7.70;;;;;;;18.24;100.00;93368.53;5010739;28;20045;-77
2022/07/02 03:40:50;;;;;;;12.75;8.18;;;;;;;18.23;100.00;93366.22;5010043;28;20068;-77
2022/07/02 03:43:16;;;;;;;17.08;8.23;;;;;;;18.24;100.00;93367.78;5010332;28;20445;-77
2022/07/02 03:45:43;;;;;;;15.70;8.23;;;;;;;18.26;100.00;93370.91;5010242;28;20518;-77
2022/07/02 03:48:10;;;;;;;15.73;7.95;;;;;;;18.23;100.00;93366.97;5010993;28;20054;-77
2022/07/02 03:50:40;;;;;;;13.60;8.25;;;;;;;18.16;100.00;93359.41;5010831;28;20049;-77
2022/07/02 03:53:07;;;;;;;10.65;8.02;;;;;;;18.26;100.00;93379.50;5010736;28;20087;-77
2022/07/02 03:55:34;;;;;;;12.23;8.57;;;;;;;18.29;100.00;93371.16;5010391;28;20493;-77
2022/07/02 03:58:02;;;;;;;11.05;8.57;;;;;;;18.32;100.00;93376.91;5010598;28;20049;-77
2022/07/02 04:00:29;;;;;;;11.18;9.10;;;;;;;18.34;100.00;93373.03;5010651;28;20096;-77
2022/07/02 04:02:56;;;;;;;14.77;8.15;;;;;;;18.35;100.00;93366.78;5010348;28;20058;-77
2022/07/02 04:05:23;;;;;;;11.43;8.07;;;;;;;18.39;100.00;93370.44;5004161;28;20596;-77
2022/07/02 04:07:49;;;;;;;11.30;8.68;;;;;;;18.51;100.00;93378.00;5003644;28;20123;-76
2022/07/02 04:10:16;;;;;;;12.30;7.75;;;;;;;18.39;100.00;93349.66;5009940;28;20101;-77
2022/07/02 04:12:43;;;;;;;13.55;8.55;;;;;;;18.66;100.00;93384.31;5010200;28;20498;-77
2022/07/02 04:15:11;;;;;;;9.90;7.80;;;;;;;18.72;100.00;93392.91;5009944;28;20100;-77
2022/07/02 04:17:38;;;;;;;13.63;8.07;;;;;;;18.66;100.00;93373.91;5010337;28;20099;-76
2022/07/02 04:20:06;;;;;;;11.55;8.27;;;;;;;18.81;100.00;93384.38;5009977;28;20505;-76
2022/07/02 04:22:32;;;;;;;11.60;7.95;;;;;;;18.85;100.00;93383.84;5009849;28;20522;-76
2022/07/02 04:25:17;;;;;;;11.45;8.73;;;;;;;18.94;100.00;93387.50;5010083;28;20096;-76
2022/07/02 04:27:44;;;;;;;15.60;9.05;;;;;;;18.96;100.00;93386.22;5009926;28;20042;-76
2022/07/02 04:30:13;;;;;;;16.02;9.07;;;;;;;19.05;100.00;93386.53;5009997;28;20092;-76
2022/07/02 04:32:40;;;;;;;13.13;9.13;;;;;;;19.09;100.00;93390.19;5010055;28;20046;-76
2022/07/02 04:35:08;;;;;;;12.93;8.95;;;;;;;19.16;100.00;93392.50;5010092;28;20053;-76
2022/07/02 04:37:34;;;;;;;9.77;8.02;;;;;;;19.25;100.00;93395.38;5009902;28;20050;-76
2022/07/02 04:40:01;;;;;;;11.70;8.77;;;;;;;19.34;100.00;93400.84;5010099;28;20096;-76
2022/07/02 04:42:29;;;;;;;10.80;7.97;;;;;;;19.40;100.00;93399.84;5009738;28;20046;-76
2022/07/02 04:44:56;;;;;;;17.42;9.27;;;;;;;19.50;100.00;93399.06;5009780;28;20042;-76
2022/07/02 04:47:24;;;;;;;13.23;8.60;;;;;;;19.60;100.00;93390.44;5009829;28;20050;-76
2022/07/02 04:49:51;;;;;;;14.43;8.35;;;;;;;19.67;99.71;93390.97;5009865;28;20050;-76
2022/07/02 04:52:18;;;;;;;14.68;9.52;;;;;;;19.82;99.60;93390.19;5008900;28;20050;-78
2022/07/02 04:54:45;;;;;;;13.30;8.88;;;;;;;19.83;100.00;93383.13;5009875;28;20096;-77
2022/07/02 04:57:11;;;;;;;14.25;9.30;;;;;;;20.00;98.69;93396.69;5009456;28;20050;-77
2022/07/02 04:59:38;;;;;;;17.15;10.93;;;;;;;20.07;99.57;93396.41;5009300;28;20046;-76
2022/07/02 05:02:05;;;;;;;15.43;9.50;;;;;;;20.16;99.89;93394.06;5009702;28;20104;-77
2022/07/02 05:04:34;;;;;;;16.08;9.75;;;;;;;20.28;100.00;93396.38;5009796;28;20054;-77
2022/07/02 05:07:00;;;;;;;15.48;10.32;;;;;;;20.38;100.00;93403.38;4995946;28;20096;-77
2022/07/02 05:09:27;;;;;;;16.70;10.02;;;;;;;20.50;97.50;93398.63;5009751;28;20049;-77
2022/07/02 05:11:54;;;;;;;24.35;13.93;;;;;;;20.63;98.95;93393.88;5009557;28;20058;-77
2022/07/02 05:14:21;;;;;;;30.08;15.60;;;;;;;20.70;96.74;93392.53;5009725;28;20057;-77
2022/07/02 05:16:48;;;;;;;32.90;16.38;;;;;;;20.83;96.66;93391.19;5009590;28;20054;-77
2022/07/02 05:19:15;;;;;;;28.77;16.05;;;;;;;20.95;94.27;93395.31;5009567;28;20050;-78
2022/07/02 05:21:43;;;;;;;41.42;21.08;;;;;;;21.00;95.94;93384.06;5009318;28;20348;-78
2022/07/02 05:24:11;;;;;;;33.15;17.45;;;;;;;21.09;91.64;93380.63;5009665;28;20056;-78
2022/07/02 05:26:38;;;;;;;37.60;18.42;;;;;;;21.33;92.52;93393.00;5009513;28;20410;-77
2022/07/02 05:29:04;;;;;;;38.65;18.73;;;;;;;21.51;92.58;93400.47;5009273;28;20046;-77
2022/07/02 05:31:31;;;;;;;31.63;16.60;;;;;;;21.68;90.79;93407.88;5009161;28;20560;-77
2022/07/02 05:33:58;;;;;;;30.85;16.33;;;;;;;21.74;89.63;93391.94;5009322;28;20045;-77
2022/07/02 05:36:25;;;;;;;36.85;17.98;;;;;;;22.03;86.55;93408.66;5009386;28;20054;-77
2022/07/02 05:38:53;;;;;;;36.83;18.65;;;;;;;22.21;87.60;93396.69;5009337;28;20050;-77
2022/07/02 05:41:19;;;;;;;29.25;14.80;;;;;;;22.44;90.59;93404.84;5009471;28;20104;-77
2022/07/02 05:43:46;;;;;;;40.25;16.33;;;;;;;22.59;88.33;93403.13;5008724;28;20481;-78
2022/07/02 05:46:13;;;;;;;28.35;15.35;;;;;;;22.77;88.18;93401.63;5008907;28;20061;-78
2022/07/02 05:48:41;;;;;;;35.13;16.65;;;;;;;23.04;86.70;93405.44;5009389;28;20582;-78
2022/07/02 05:51:08;;;;;;;32.72;16.45;;;;;;;23.18;84.65;93397.66;5009171;28;20832;-78
2022/07/02 05:53:34;;;;;;;31.50;15.38;;;;;;;23.35;84.25;93408.44;5008916;28;20053;-78
2022/07/02 05:56:03;;;;;;;31.58;16.33;;;;;;;23.49;81.63;93405.88;5009218;28;20042;-78
2022/07/02 05:58:29;;;;;;;35.05;17.05;;;;;;;23.74;81.31;93406.53;5009137;28;20434;-78
2022/07/02 06:00:56;;;;;;;32.20;16.13;;;;;;;24.02;81.43;93403.16;5008847;28;20514;-78
2022/07/02 06:03:23;;;;;;;30.58;16.15;;;;;;;24.09;80.52;93406.25;5008765;28;20096;-79
2022/07/02 06:08:34;;;;;;;35.15;16.23;;;;;;;24.05;79.72;93413.09;5011575;28;20057;-80
2022/07/02 06:11:02;;;;;;;72.75;29.15;;;;;;;24.51;78.29;93408.88;5012481;28;20054;-80
2022/07/02 06:13:29;;;;;;;48.05;21.63;;;;;;;24.53;76.22;93414.63;5012634;28;20052;-80
2022/07/02 06:15:55;;;;;;;51.42;23.80;;;;;;;24.64;76.31;93412.59;5012438;28;20060;-79
2022/07/02 06:18:22;;;;;;;70.28;30.48;;;;;;;25.01;75.34;93415.28;5008526;28;20120;-78
2022/07/02 06:20:49;;;;;;;75.20;31.25;;;;;;;24.89;73.92;93407.09;5009990;28;20493;-79
2022/07/02 06:23:19;;;;;;;77.57;34.33;;;;;;;25.35;72.02;93419.28;5011599;28;20053;-78
2022/07/02 06:25:46;;;;;;;75.07;32.10;;;;;;;25.55;73.06;93416.50;5011947;28;20054;-78
2022/07/02 06:28:14;;;;;;;73.97;31.60;;;;;;;25.45;70.74;93417.47;5011757;28;20104;-78
2022/07/02 06:30:41;;;;;;;54.47;25.88;;;;;;;25.49;69.49;93419.22;5011958;28;20490;-78
2022/07/02 06:33:08;;;;;;;50.08;23.48;;;;;;;25.66;69.61;93424.91;5012099;28;20050;-78
2022/07/02 06:35:34;;;;;;;44.15;20.92;;;;;;;25.84;68.65;93420.53;5011555;28;20442;-78
2022/07/02 06:38:01;;;;;;;42.58;18.80;;;;;;;26.25;66.18;93408.25;5011779;28;20049;-79
2022/07/02 06:40:28;;;;;;;33.65;16.05;;;;;;;26.87;66.23;93429.47;5011808;28;20092;-76
2022/07/02 06:42:55;;;;;;;38.38;15.07;;;;;;;27.26;63.86;93430.50;5011591;28;20104;-77
2022/07/02 06:45:23;;;;;;;51.08;17.25;;;;;;;27.39;60.46;93418.25;5011976;28;20092;-76
2022/07/02 06:47:50;;;;;;;54.42;16.17;;;;;;;27.29;62.92;93411.44;5009200;28;20840;-77
2022/07/02 06:50:18;;;;;;;57.95;19.98;;;;;;;27.90;61.02;93427.53;5000555;28;20485;-76
2022/07/02 06:52:45;;;;;;;47.75;17.75;;;;;;;28.23;59.28;93425.13;5011768;28;20092;-76
2022/07/02 06:55:12;;;;;;;48.97;14.93;;;;;;;28.48;57.39;93425.38;5011509;28;20355;-76
2022/07/02 06:57:39;;;;;;;48.67;16.65;;;;;;;28.86;55.31;93433.56;5011380;28;20046;-76
2022/07/02 07:00:08;;;;;;;37.88;14.10;;;;;;;28.79;54.71;93429.53;5011347;28;20050;-77
2022/07/02 07:02:37;;;;;;;32.60;13.80;;;;;;;29.22;54.11;93429.63;5011194;28;20092;-76
2022/07/02 07:05:04;;;;;;;23.42;11.23;;;;;;;29.15;51.24;93434.66;5007351;28;20121;-76
2022/07/02 07:07:31;;;;;;;30.02;12.57;;;;;;;29.27;51.59;93431.31;5001878;28;20054;-76
2022/07/02 07:09:58;;;;;;;30.48;11.90;;;;;;;29.41;53.69;93437.13;5011379;28;20050;-76
2022/07/02 07:12:25;;;;;;;23.17;11.30;;;;;;;28.61;53.17;93430.75;5011450;28;20046;-76
2022/07/02 07:14:52;;;;;;;25.95;11.82;;;;;;;28.81;55.72;93435.31;5011187;28;20049;-76
2022/07/02 07:17:19;;;;;;;35.45;13.20;;;;;;;29.10;53.96;93427.69;5010321;28;20429;-77
2022/07/02 07:19:47;;;;;;;27.65;13.10;;;;;;;29.28;54.66;93427.56;5011293;28;20054;-76
2022/07/02 07:22:14;;;;;;;24.50;12.50;;;;;;;29.81;53.37;93427.91;5010613;28;20054;-77
2022/07/02 07:24:40;;;;;;;25.02;11.70;;;;;;;30.30;52.29;93421.19;5011134;28;20054;-77
2022/07/02 07:27:07;;;;;;;23.92;13.00;;;;;;;30.30;50.13;93431.78;5010921;28;20045;-77
2022/07/02 07:29:35;;;;;;;30.50;12.10;;;;;;;30.61;50.49;93432.38;5010992;28;20127;-76
2022/07/02 07:32:02;;;;;;;29.33;11.13;;;;;;;30.69;48.12;93433.38;5010975;28;20070;-77
2022/07/02 07:34:29;;;;;;;25.70;11.48;;;;;;;30.66;49.36;93435.59;5011108;28;20096;-77
2022/07/02 07:36:58;;;;;;;31.77;11.00;;;;;;;30.92;48.53;93433.72;5010311;28;20057;-77
2022/07/02 07:39:25;;;;;;;26.50;10.70;;;;;;;30.95;48.54;93427.72;5011063;28;20046;-76
2022/07/02 07:41:52;;;;;;;19.60;9.43;;;;;;;29.68;51.75;93400.63;5010847;28;20578;-78
2022/07/02 07:44:19;;;;;;;18.75;9.35;;;;;;;30.12;49.86;93434.63;5010594;28;20053;-78
2022/07/02 07:46:46;;;;;;;26.30;12.60;;;;;;;30.48;50.79;93424.41;5010853;28;20057;-77
2022/07/02 07:49:14;;;;;;;18.80;10.00;;;;;;;29.99;50.73;93417.91;5010280;28;20050;-79
2022/07/02 07:51:41;;;;;;;14.43;8.93;;;;;;;29.31;52.97;93429.56;5011000;28;20398;-78
2022/07/02 07:54:09;;;;;;;17.83;10.23;;;;;;;30.14;52.78;93429.78;5010613;28;20415;-76
2022/07/02 07:56:36;;;;;;;17.60;10.45;;;;;;;30.10;49.19;93423.63;5010397;28;20107;-78
2022/07/02 07:59:02;;;;;;;15.55;9.50;;;;;;;30.63;48.51;93430.16;5010470;28;20049;-77
2022/07/02 08:01:29;;;;;;;13.82;8.93;;;;;;;30.92;49.24;93423.88;5010555;28;20429;-77
2022/07/02 08:03:56;;;;;;;18.85;9.30;;;;;;;30.67;49.78;93431.81;5010003;28;20494;-78
2022/07/02 08:06:23;;;;;;;15.40;9.10;;;;;;;31.11;48.86;93429.69;5009955;28;20046;-78
2022/07/02 08:08:49;;;;;;;19.58;9.90;;;;;;;31.56;49.95;93433.25;5010183;28;20041;-78
2022/07/02 08:11:17;;;;;;;14.73;8.40;;;;;;;30.62;49.20;93428.59;5010197;28;20054;-79
2022/07/02 08:13:44;;;;;;;18.20;8.88;;;;;;;30.79;49.46;93423.09;5010278;28;20049;-78
2022/07/02 08:16:11;;;;;;;14.35;9.13;;;;;;;31.54;47.51;93435.47;5010362;28;20053;-78
2022/07/02 08:18:38;;;;;;;12.48;7.07;;;;;;;32.12;45.55;93415.75;5010153;28;20548;-78
2022/07/02 08:21:04;;;;;;;10.90;7.20;;;;;;;32.61;43.98;93419.19;5010147;28;20089;-79
2022/07/02 08:23:31;;;;;;;15.65;9.70;;;;;;;31.52;47.79;93419.88;5010077;28;20057;-79
2022/07/02 08:25:58;;;;;;;13.50;9.30;;;;;;;31.40;48.00;93423.34;5010110;28;20045;-78
2022/07/02 08:28:26;;;;;;;20.50;9.75;;;;;;;32.07;46.24;93431.94;5009554;28;20042;-78
2022/07/02 08:30:53;;;;;;;12.90;8.07;;;;;;;32.25;46.53;93427.03;5009910;28;20100;-77
2022/07/02 08:33:20;;;;;;;5.13;4.10;;;;;;;30.42;42.89;93444.28;5010190;28;20045;-78
2022/07/02 08:35:47;;;;;;;6.93;4.57;;;;;;;30.50;46.20;93432.03;5009854;28;20046;-78
2022/07/02 08:38:13;;;;;;;5.78;4.25;;;;;;;30.21;44.32;93437.19;5009633;28;20046;-79
2022/07/02 08:40:43;;;;;;;8.75;5.82;;;;;;;30.57;43.96;93426.19;5009928;28;20046;-80
2022/07/02 08:43:11;;;;;;;5.47;4.00;;;;;;;30.32;43.64;93437.56;5010010;28;20042;-79
2022/07/02 08:45:41;;;;;;;7.70;4.10;;;;;;;30.69;44.42;93446.63;5009491;28;20057;-78
2022/07/02 08:48:09;;;;;;;7.05;4.05;;;;;;;30.48;44.03;93447.50;5009958;28;20042;-80
2022/07/02 08:50:36;;;;;;;7.80;3.72;;;;;;;30.31;44.71;93441.28;5009698;28;20100;-79
2022/07/02 08:53:04;;;;;;;9.45;4.93;;;;;;;29.96;46.93;93436.34;5010003;28;20445;-79
2022/07/02 08:55:33;;;;;;;7.45;4.50;;;;;;;30.41;47.17;93442.75;5009402;28;20052;-78
2022/07/02 08:58:01;;;;;;;11.52;7.13;;;;;;;30.21;45.10;93447.78;5009859;28;20050;-78
2022/07/02 09:00:29;;;;;;;8.18;4.65;;;;;;;30.29;45.26;93445.38;5009787;28;20518;-79
2022/07/02 09:02:59;;;;;;;7.93;4.15;;;;;;;30.22;45.18;93456.53;5009452;28;20463;-78
2022/07/02 09:05:27;;;;;;;12.05;6.20;;;;;;;29.64;46.59;93449.25;5002225;28;20046;-78
2022/07/02 09:07:55;;;;;;;6.82;4.93;;;;;;;29.15;45.82;93456.59;5003277;28;20100;-77
2022/07/02 09:10:23;;;;;;;10.02;6.53;;;;;;;29.36;46.78;93447.88;5009582;28;20129;-78
2022/07/02 09:12:52;;;;;;;8.63;5.78;;;;;;;29.82;48.09;93442.72;5009323;28;20572;-79
2022/07/02 09:15:19;;;;;;;8.38;5.55;;;;;;;29.87;47.78;93429.28;5009271;28;20048;-78
2022/07/02 09:17:46;;;;;;;7.22;4.65;;;;;;;29.64;48.55;93446.59;5009607;28;20120;-78
2022/07/02 09:20:14;;;;;;;6.15;4.82;;;;;;;29.73;47.17;93440.16;5009408;28;20046;-78
2022/07/02 09:22:43;;;;;;;8.35;4.50;;;;;;;29.82;46.43;93434.78;5009187;28;20134;-78
2022/07/02 09:25:12;;;;;;;6.75;5.20;;;;;;;30.35;46.89;93442.19;5009356;28;20060;-78
2022/07/02 09:27:39;;;;;;;5.70;4.60;;;;;;;30.42;44.59;93433.69;5009576;28;20096;-79
2022/07/02 09:30:08;;;;;;;5.88;4.38;;;;;;;30.52;44.65;93441.22;5009434;28;20095;-78
2022/07/02 09:32:39;;;;;;;6.00;4.53;;;;;;;30.29;44.75;93432.13;5009077;28;20045;-79
2022/07/02 09:35:07;;;;;;;9.57;4.32;;;;;;;30.36;44.20;93429.72;5009182;28;20589;-77
2022/07/02 09:37:35;;;;;;;8.35;4.32;;;;;;;30.20;44.81;93437.50;5009367;28;20133;-78
2022/07/02 09:40:04;;;;;;;5.35;4.50;;;;;;;30.44;44.66;93457.22;5011674;28;20045;-78
2022/07/02 09:42:32;;;;;;;7.97;5.55;;;;;;;30.89;44.20;93447.63;5013350;28;20042;-80
2022/07/02 09:45:01;;;;;;;6.60;4.88;;;;;;;30.77;43.83;93451.06;5012887;28;20057;-79
2022/07/02 09:47:32;;;;;;;5.18;4.30;;;;;;;30.67;43.34;93449.59;5012966;28;20041;-79
2022/07/02 09:50:03;;;;;;;7.35;4.80;;;;;;;30.42;45.18;93436.34;5012967;28;20148;-80
2022/07/02 09:52:30;;;;;;;7.65;5.03;;;;;;;30.05;45.90;93444.97;5013113;28;20133;-79
2022/07/02 09:54:58;;;;;;;7.78;4.88;;;;;;;30.42;45.29;93431.03;5012942;28;20125;-79
2022/07/02 09:57:26;;;;;;;11.52;5.53;;;;;;;30.77;46.03;93437.78;5012572;28;20057;-78
2022/07/02 09:59:53;;;;;;;6.20;5.25;;;;;;;30.55;46.19;93442.44;5012746;28;20099;-79
2022/07/02 10:02:23;;;;;;;13.23;5.10;;;;;;;30.48;44.24;93439.53;5012996;28;20050;-78
2022/07/02 10:04:53;;;;;;;8.05;5.50;;;;;;;30.38;43.33;93427.50;5010569;28;20107;-80
2022/07/02 10:07:21;;;;;;;5.60;4.78;;;;;;;30.54;43.63;93428.41;5002154;28;20465;-79
2022/07/02 10:09:48;;;;;;;7.35;5.20;;;;;;;30.41;44.85;93424.19;5012830;28;20052;-78
2022/07/02 10:12:17;;;;;;;6.05;5.28;;;;;;;30.78;44.38;93428.75;5012550;28;20080;-79
2022/07/02 10:14:45;;;;;;;7.63;5.18;;;;;;;30.95;43.68;93434.94;5012664;28;20045;-80
2022/07/02 10:17:11;;;;;;;7.72;5.22;;;;;;;30.71;42.14;93413.41;5012460;28;20042;-79
2022/07/02 10:19:39;;;;;;;8.55;4.80;;;;;;;31.25;42.77;93426.69;5012412;28;20461;-79
2022/07/02 10:22:07;;;;;;;6.13;4.13;;;;;;;31.87;39.62;93429.16;5012264;28;20042;-80
2022/07/02 10:24:34;;;;;;;6.45;3.75;;;;;;;31.38;38.21;93433.50;5010145;28;20053;-79
2022/07/02 10:27:02;;;;;;;6.60;4.32;;;;;;;31.52;39.71;93435.78;4998340;28;20046;-78
2022/07/02 10:29:30;;;;;;;5.43;3.85;;;;;;;31.85;38.52;93431.38;5010774;28;20096;-79
2022/07/02 10:32:05;;;;;;;6.00;4.65;;;;;;;31.39;39.59;93410.41;4998508;28;20096;-79
2022/07/02 10:34:48;;;;;;;8.50;5.87;;;;;;;31.35;39.46;93418.28;5011841;28;20057;-78
2022/07/02 10:37:16;;;;;;;7.18;4.68;;;;;;;31.39;39.67;93407.75;5012223;28;20291;-78
2022/07/02 10:39:44;;;;;;;6.00;4.22;;;;;;;31.91;39.04;93405.34;5012030;28;20446;-78
2022/07/02 10:42:11;;;;;;;19.13;9.00;;;;;;;31.72;40.26;93414.72;5011811;28;20053;-80
2022/07/02 10:44:40;;;;;;;20.02;9.45;;;;;;;31.71;41.32;93405.97;5011769;28;20108;-79
2022/07/02 10:47:17;;;;;;;10.02;5.45;;;;;;;31.41;41.46;93414.28;5011551;28;20054;-78
2022/07/02 10:49:44;;;;;;;14.05;7.18;;;;;;;31.05;42.37;93411.34;5011399;28;20095;-77
2022/07/02 10:52:11;;;;;;;10.93;6.82;;;;;;;30.80;42.52;93413.28;5010901;28;20093;-77
2022/07/02 10:54:44;;;;;;;6.57;5.22;;;;;;;30.93;42.68;93422.75;5011908;28;20058;-79
2022/07/02 10:57:16;;;;;;;7.65;5.15;;;;;;;30.91;42.67;93408.31;5011659;28;20042;-78
2022/07/02 10:59:44;;;;;;;9.57;5.20;;;;;;;31.47;42.99;93425.44;5011883;28;20449;-78
2022/07/02 11:02:16;;;;;;;6.20;5.22;;;;;;;32.01;42.43;93407.50;5011567;28;20053;-78
2022/07/02 11:04:43;;;;;;;9.60;6.22;;;;;;;32.18;41.75;93403.75;5010211;28;20145;-79
2022/07/02 11:07:11;;;;;;;8.05;5.07;;;;;;;32.32;41.16;93399.88;4999382;28;20492;-79
2022/07/02 11:09:48;;;;;;;5.60;4.53;;;;;;;31.75;41.07;93390.13;5011787;28;20050;-77
2022/07/02 11:12:20;;;;;;;7.93;5.40;;;;;;;31.26;42.96;93401.69;5011110;28;20457;-78
2022/07/02 11:14:57;;;;;;;10.98;5.40;;;;;;;31.88;41.57;93374.16;5011299;28;20167;-80
2022/07/02 11:17:25;;;;;;;8.63;5.78;;;;;;;32.53;40.36;93395.09;5011558;28;20108;-79
2022/07/02 11:19:54;;;;;;;7.13;5.28;;;;;;;32.83;40.77;93382.41;5011362;28;20054;-79
2022/07/02 11:22:21;;;;;;;7.68;5.43;;;;;;;33.70;38.98;93379.59;5011015;28;20082;-79
2022/07/02 11:24:48;;;;;;;9.32;5.55;;;;;;;32.72;40.11;93377.63;5011277;28;20447;-78
2022/07/02 11:27:15;;;;;;;6.47;5.35;;;;;;;32.57;40.77;93397.81;5010977;28;20050;-79
2022/07/02 11:29:52;;;;;;;9.05;5.50;;;;;;;32.40;39.78;93399.69;5011169;28;20049;-79
2022/07/02 11:32:21;;;;;;;7.45;5.90;;;;;;;32.51;40.00;93397.34;5010794;28;20060;-78